sensor_id;sensor_type;location;lat;lon;timestamp;pressure;altitude;pressure_sealevel;temperature;humidity
56414;BME280;42318;48.452;19.526;2023-07-31T00:05:00;97954.41;;;21.93;59.94
56414;BME280;42318;48.452;19.526;2023-07-31T00:10:01;97956.03;;;21.94;60.04
56414;BME280;42318;48.452;19.526;2023-07-31T00:15:03;97956.03;;;21.94;60.17
56414;BME280;42318;48.452;19.526;2023-07-31T00:20:05;97951.38;;;21.94;59.99
56414;BME280;42318;48.452;19.526;2023-07-31T00:25:06;97947.03;;;21.93;60.14
56414;BME280;42318;48.452;19.526;2023-07-31T00:30:07;97946.22;;;21.93;60.21
56414;BME280;42318;48.452;19.526;2023-07-31T00:35:08;97946.22;;;21.93;59.91
56414;BME280;42318;48.452;19.526;2023-07-31T00:40:09;97944.59;;;21.92;60.26
56414;BME280;42318;48.452;19.526;2023-07-31T00:45:10;97939.13;;;21.92;60.27
56414;BME280;42318;48.452;19.526;2023-07-31T00:50:10;97945.69;;;21.91;59.87
56414;BME280;42318;48.452;19.526;2023-07-31T00:55:11;97939.13;;;21.92;60.22
56414;BME280;42318;48.452;19.526;2023-07-31T01:00:12;97937.50;;;21.91;60.00
56414;BME280;42318;48.452;19.526;2023-07-31T01:05:13;97934.78;;;21.91;60.13
56414;BME280;42318;48.452;19.526;2023-07-31T01:10:15;97928.50;;;21.90;59.88
56414;BME280;42318;48.452;19.526;2023-07-31T01:15:17;97920.06;;;21.87;59.95
56414;BME280;42318;48.452;19.526;2023-07-31T01:20:21;97932.31;;;21.89;60.11
56414;BME280;42318;48.452;19.526;2023-07-31T01:25:45;97926.88;;;21.89;59.89
56414;BME280;42318;48.452;19.526;2023-07-31T01:30:48;97918.44;;;21.86;60.11
56414;BME280;42318;48.452;19.526;2023-07-31T01:35:49;97925.25;;;21.88;59.87
56414;BME280;42318;48.452;19.526;2023-07-31T01:40:53;97919.78;;;21.88;60.05
56414;BME280;42318;48.452;19.526;2023-07-31T01:45:54;97915.44;;;21.87;59.95
56414;BME280;42318;48.452;19.526;2023-07-31T01:50:55;97905.63;;;21.86;59.98
56414;BME280;42318;48.452;19.526;2023-07-31T01:55:55;97906.44;;;21.87;59.81
56414;BME280;42318;48.452;19.526;2023-07-31T02:00:56;97904.81;;;21.86;59.87
56414;BME280;42318;48.452;19.526;2023-07-31T02:05:57;97904.81;;;21.86;60.28
56414;BME280;42318;48.452;19.526;2023-07-31T02:10:58;97918.44;;;21.86;60.03
56414;BME280;42318;48.452;19.526;2023-07-31T02:15:58;97923.34;;;21.84;59.96
56414;BME280;42318;48.452;19.526;2023-07-31T02:20:59;97925.00;;;21.85;59.78
56414;BME280;42318;48.452;19.526;2023-07-31T02:26:00;97923.63;;;21.82;59.94
56414;BME280;42318;48.452;19.526;2023-07-31T02:31:01;97925.28;;;21.83;59.86
56414;BME280;42318;48.452;19.526;2023-07-31T02:36:02;97917.91;;;21.84;60.25
56414;BME280;42318;48.452;19.526;2023-07-31T02:41:02;97923.63;;;21.82;59.95
56414;BME280;42318;48.452;19.526;2023-07-31T02:46:03;97921.72;;;21.83;60.22
56414;BME280;42318;48.452;19.526;2023-07-31T02:51:04;97922.28;;;21.80;60.16
56414;BME280;42318;48.452;19.526;2023-07-31T02:56:05;97925.56;;;21.82;59.98
56414;BME280;42318;48.452;19.526;2023-07-31T03:01:05;97920.38;;;21.80;60.09
56414;BME280;42318;48.452;19.526;2023-07-31T03:06:06;97926.66;;;21.81;59.85
56414;BME280;42318;48.452;19.526;2023-07-31T03:11:07;97936.47;;;21.82;59.99
56414;BME280;42318;48.452;19.526;2023-07-31T03:16:07;97925.84;;;21.80;60.13
56414;BME280;42318;48.452;19.526;2023-07-31T03:21:08;97928.84;;;21.79;60.18
56414;BME280;42318;48.452;19.526;2023-07-31T03:26:09;97946.03;;;21.79;60.22
56414;BME280;42318;48.452;19.526;2023-07-31T03:31:10;97956.09;;;21.79;59.82
56414;BME280;42318;48.452;19.526;2023-07-31T03:36:12;97976.84;;;21.80;60.19
56414;BME280;42318;48.452;19.526;2023-07-31T03:41:12;97964.84;;;21.76;60.24
56414;BME280;42318;48.452;19.526;2023-07-31T03:46:13;97974.38;;;21.78;59.82
56414;BME280;42318;48.452;19.526;2023-07-31T03:51:14;97979.84;;;21.78;60.08
56414;BME280;42318;48.452;19.526;2023-07-31T03:56:15;97980.66;;;21.79;60.12
56414;BME280;42318;48.452;19.526;2023-07-31T04:01:15;97984.47;;;21.78;60.14
56414;BME280;42318;48.452;19.526;2023-07-31T04:06:17;97982.03;;;21.76;59.85
56414;BME280;42318;48.452;19.526;2023-07-31T04:11:18;97993.75;;;21.77;59.88
56414;BME280;42318;48.452;19.526;2023-07-31T04:16:19;97990.22;;;21.76;60.02
56414;BME280;42318;48.452;19.526;2023-07-31T04:21:20;97989.94;;;21.78;60.03
56414;BME280;42318;48.452;19.526;2023-07-31T04:26:20;97977.41;;;21.77;60.03
56414;BME280;42318;48.452;19.526;2023-07-31T04:31:21;97957.50;;;21.76;59.75
56414;BME280;42318;48.452;19.526;2023-07-31T04:36:22;97952.31;;;21.75;59.87
56414;BME280;42318;48.452;19.526;2023-07-31T04:41:23;97938.41;;;21.76;60.11
56414;BME280;42318;48.452;19.526;2023-07-31T04:46:23;97941.94;;;21.77;59.85
56414;BME280;42318;48.452;19.526;2023-07-31T04:51:24;97943.84;;;21.76;60.06
56414;BME280;42318;48.452;19.526;2023-07-31T04:56:25;97934.31;;;21.74;60.12
56414;BME280;42318;48.452;19.526;2023-07-31T05:01:26;97935.69;;;21.76;59.46
56414;BME280;42318;48.452;19.526;2023-07-31T05:06:27;97930.78;;;21.73;59.62
56414;BME280;42318;48.452;19.526;2023-07-31T05:11:28;97930.22;;;21.76;59.99
56414;BME280;42318;48.452;19.526;2023-07-31T05:16:28;97924.50;;;21.78;59.84
56414;BME280;42318;48.452;19.526;2023-07-31T05:21:29;97923.94;;;21.76;60.05
56414;BME280;42318;48.452;19.526;2023-07-31T05:26:30;97929.94;;;21.78;60.25
56414;BME280;42318;48.452;19.526;2023-07-31T05:31:31;97933.47;;;21.78;60.08
56414;BME280;42318;48.452;19.526;2023-07-31T05:36:33;97941.66;;;21.78;60.20
56414;BME280;42318;48.452;19.526;2023-07-31T05:41:35;97941.13;;;21.76;60.32
56414;BME280;42318;48.452;19.526;2023-07-31T05:46:36;97944.66;;;21.77;60.37
56414;BME280;42318;48.452;19.526;2023-07-31T05:51:36;97953.38;;;21.79;60.18
56414;BME280;42318;48.452;19.526;2023-07-31T05:56:37;97950.66;;;21.79;60.00
56414;BME280;42318;48.452;19.526;2023-07-31T06:01:38;97950.13;;;21.77;60.11
56414;BME280;42318;48.452;19.526;2023-07-31T06:06:39;97956.94;;;21.79;60.21
56414;BME280;42318;48.452;19.526;2023-07-31T06:11:40;97959.66;;;21.79;60.08
56414;BME280;42318;48.452;19.526;2023-07-31T06:16:41;97968.94;;;21.78;60.18
56414;BME280;42318;48.452;19.526;2023-07-31T06:21:42;97969.75;;;21.79;60.34
56414;BME280;42318;48.452;19.526;2023-07-31T06:26:44;97958.03;;;21.78;60.01
56414;BME280;42318;48.452;19.526;2023-07-31T06:31:45;97959.66;;;21.79;59.94
56414;BME280;42318;48.452;19.526;2023-07-31T06:36:46;97969.75;;;21.79;60.26
56414;BME280;42318;48.452;19.526;2023-07-31T06:41:46;97971.94;;;21.77;60.26
56414;BME280;42318;48.452;19.526;2023-07-31T06:46:47;97969.75;;;21.79;60.16
56414;BME280;42318;48.452;19.526;2023-07-31T06:51:48;97967.03;;;21.79;60.30
56414;BME280;42318;48.452;19.526;2023-07-31T06:56:49;97965.09;;;21.79;59.86
56414;BME280;42318;48.452;19.526;2023-07-31T07:01:49;97974.09;;;21.80;59.89
56414;BME280;42318;48.452;19.526;2023-07-31T07:06:50;97971.38;;;21.80;60.22
56414;BME280;42318;48.452;19.526;2023-07-31T07:11:51;97968.94;;;21.78;60.18
56414;BME280;42318;48.452;19.526;2023-07-31T07:16:52;97976.00;;;21.79;59.98
56414;BME280;42318;48.452;19.526;2023-07-31T07:21:52;97961.28;;;21.80;60.24
56414;BME280;42318;48.452;19.526;2023-07-31T07:26:53;97962.09;;;21.81;59.81
56414;BME280;42318;48.452;19.526;2023-07-31T07:31:54;97957.75;;;21.80;59.86
56414;BME280;42318;48.452;19.526;2023-07-31T07:36:55;97955.00;;;21.80;60.16
56414;BME280;42318;48.452;19.526;2023-07-31T07:41:56;97954.72;;;21.81;60.21
56414;BME280;42318;48.452;19.526;2023-07-31T07:46:56;97958.28;;;21.82;59.65
56414;BME280;42318;48.452;19.526;2023-07-31T07:51:57;97960.47;;;21.80;59.74
56414;BME280;42318;48.452;19.526;2023-07-31T07:56:58;97958.28;;;21.82;59.76
56414;BME280;42318;48.452;19.526;2023-07-31T08:01:59;97955.84;;;21.80;59.70
56414;BME280;42318;48.452;19.526;2023-07-31T08:07:00;97954.72;;;21.81;59.95
56414;BME280;42318;48.452;19.526;2023-07-31T08:12:01;97967.56;;;21.81;59.67
56414;BME280;42318;48.452;19.526;2023-07-31T08:17:03;97972.44;;;21.84;60.05
56414;BME280;42318;48.452;19.526;2023-07-31T08:22:05;97977.09;;;21.83;60.04
56414;BME280;42318;48.452;19.526;2023-07-31T08:27:06;97983.06;;;21.85;60.00
56414;BME280;42318;48.452;19.526;2023-07-31T08:32:06;97981.16;;;21.86;60.05
56414;BME280;42318;48.452;19.526;2023-07-31T08:37:07;97972.69;;;21.87;59.76
56414;BME280;42318;48.452;19.526;2023-07-31T08:42:08;97987.72;;;21.85;60.00
56414;BME280;42318;48.452;19.526;2023-07-31T08:47:10;97985.53;;;21.87;59.85
56414;BME280;42318;48.452;19.526;2023-07-31T08:52:11;97984.72;;;21.86;59.77
56414;BME280;42318;48.452;19.526;2023-07-31T08:57:12;97990.41;;;21.90;59.90
56414;BME280;42318;48.452;19.526;2023-07-31T09:02:15;97991.22;;;21.90;59.64
56414;BME280;42318;48.452;19.526;2023-07-31T09:07:16;97975.97;;;21.89;59.56
56414;BME280;42318;48.452;19.526;2023-07-31T09:12:17;97978.94;;;21.93;59.86
56414;BME280;42318;48.452;19.526;2023-07-31T09:17:48;97977.84;;;21.94;59.63
56414;BME280;42318;48.452;19.526;2023-07-31T09:23:12;97981.09;;;21.96;59.49
56414;BME280;42318;48.452;19.526;2023-07-31T09:28:13;97971.00;;;21.97;59.71
56414;BME280;42318;48.452;19.526;2023-07-31T09:33:17;97972.66;;;21.98;59.67
56414;BME280;42318;48.452;19.526;2023-07-31T09:38:19;97958.47;;;21.95;59.87
56414;BME280;42318;48.452;19.526;2023-07-31T09:43:21;97967.72;;;22.00;59.70
56414;BME280;42318;48.452;19.526;2023-07-31T09:48:23;97960.34;;;22.00;60.08
56414;BME280;42318;48.452;19.526;2023-07-31T09:53:29;97952.69;;;22.02;59.95
56414;BME280;42318;48.452;19.526;2023-07-31T09:58:34;97968.00;;;22.03;59.61
56414;BME280;42318;48.452;19.526;2023-07-31T10:03:35;97971.28;;;22.05;59.83
56414;BME280;42318;48.452;19.526;2023-07-31T10:08:38;97971.81;;;22.07;59.78
56414;BME280;42318;48.452;19.526;2023-07-31T10:13:40;97961.69;;;22.08;60.01
56414;BME280;42318;48.452;19.526;2023-07-31T10:18:42;97968.78;;;22.09;59.79
56414;BME280;42318;48.452;19.526;2023-07-31T10:23:44;97955.97;;;22.09;59.94
56414;BME280;42318;48.452;19.526;2023-07-31T10:28:46;97951.06;;;22.11;59.67
56414;BME280;42318;48.452;19.526;2023-07-31T10:33:47;97945.63;;;22.11;59.72
56414;BME280;42318;48.452;19.526;2023-07-31T10:38:49;97937.44;;;22.11;59.89
56414;BME280;42318;48.452;19.526;2023-07-31T10:43:54;97946.16;;;22.13;59.68
56414;BME280;42318;48.452;19.526;2023-07-31T10:48:58;97942.31;;;22.14;60.00
56414;BME280;42318;48.452;19.526;2023-07-31T10:54:13;97936.34;;;22.12;59.75
56414;BME280;42318;48.452;19.526;2023-07-31T10:59:15;97927.56;;;22.15;59.90
56414;BME280;42318;48.452;19.526;2023-07-31T11:04:25;97931.13;;;22.16;59.95
56414;BME280;42318;48.452;19.526;2023-07-31T11:09:30;97935.19;;;22.18;59.48
56414;BME280;42318;48.452;19.526;2023-07-31T11:14:31;97927.53;;;22.20;59.89
56414;BME280;42318;48.452;19.526;2023-07-31T11:19:32;97919.06;;;22.22;59.82
56414;BME280;42318;48.452;19.526;2023-07-31T11:24:33;97907.88;;;22.23;59.65
56414;BME280;42318;48.452;19.526;2023-07-31T11:29:34;97909.78;;;22.23;59.92
56414;BME280;42318;48.452;19.526;2023-07-31T11:34:51;97905.16;;;22.23;59.83
56414;BME280;42318;48.452;19.526;2023-07-31T11:40:01;97900.50;;;22.24;59.82
56414;BME280;42318;48.452;19.526;2023-07-31T11:45:07;97902.41;;;22.23;59.87
56414;BME280;42318;48.452;19.526;2023-07-31T11:50:10;97902.13;;;22.25;59.85
56414;BME280;42318;48.452;19.526;2023-07-31T11:55:12;97906.78;;;22.24;59.63
56414;BME280;42318;48.452;19.526;2023-07-31T12:00:15;97901.03;;;22.26;59.83
56414;BME280;42318;48.452;19.526;2023-07-31T12:05:17;97907.31;;;22.27;59.72
56414;BME280;42318;48.452;19.526;2023-07-31T12:10:31;97899.13;;;22.27;59.98
56414;BME280;42318;48.452;19.526;2023-07-31T12:15:43;97901.03;;;22.26;60.06
56414;BME280;42318;48.452;19.526;2023-07-31T12:20:49;97894.19;;;22.29;59.84
56414;BME280;42318;48.452;19.526;2023-07-31T12:26:13;97887.91;;;22.28;59.90
56414;BME280;42318;48.452;19.526;2023-07-31T12:31:16;97890.66;;;22.28;59.97
56414;BME280;42318;48.452;19.526;2023-07-31T12:36:22;97882.47;;;22.28;60.12
56414;BME280;42318;48.452;19.526;2023-07-31T12:41:23;97869.91;;;22.27;59.79
56414;BME280;42318;48.452;19.526;2023-07-31T12:46:24;97875.09;;;22.29;59.65
56414;BME280;42318;48.452;19.526;2023-07-31T12:51:25;97872.34;;;22.29;60.16
56414;BME280;42318;48.452;19.526;2023-07-31T12:56:27;97866.09;;;22.28;59.92
56414;BME280;42318;48.452;19.526;2023-07-31T13:01:27;97849.72;;;22.28;60.12
56414;BME280;42318;48.452;19.526;2023-07-31T13:06:28;97849.41;;;22.30;60.13
56414;BME280;42318;48.452;19.526;2023-07-31T13:11:29;97858.13;;;22.32;59.87
56414;BME280;42318;48.452;19.526;2023-07-31T13:16:30;97842.56;;;22.32;60.14
56414;BME280;42318;48.452;19.526;2023-07-31T13:21:30;97833.88;;;22.30;60.06
56414;BME280;42318;48.452;19.526;2023-07-31T13:26:31;97831.09;;;22.35;60.16
56414;BME280;42318;48.452;19.526;2023-07-31T13:31:32;97833.28;;;22.33;60.17
56414;BME280;42318;48.452;19.526;2023-07-31T13:36:32;97825.38;;;22.32;60.44
56414;BME280;42318;48.452;19.526;2023-07-31T13:41:34;97829.69;;;22.38;60.31
56414;BME280;42318;48.452;19.526;2023-07-31T13:46:35;97819.88;;;22.37;60.49
56414;BME280;42318;48.452;19.526;2023-07-31T13:51:36;97816.03;;;22.38;60.16
56414;BME280;42318;48.452;19.526;2023-07-31T13:56:38;97828.59;;;22.39;60.23
56414;BME280;42318;48.452;19.526;2023-07-31T14:01:39;97821.75;;;22.41;60.21
56414;BME280;42318;48.452;19.526;2023-07-31T14:06:40;97816.81;;;22.43;60.57
56414;BME280;42318;48.452;19.526;2023-07-31T14:11:41;97819.00;;;22.41;60.54
56414;BME280;42318;48.452;19.526;2023-07-31T14:16:41;97818.16;;;22.46;60.42
56414;BME280;42318;48.452;19.526;2023-07-31T14:21:42;97813.78;;;22.45;60.43
56414;BME280;42318;48.452;19.526;2023-07-31T14:26:43;97812.94;;;22.49;60.63
56414;BME280;42318;48.452;19.526;2023-07-31T14:31:44;97808.28;;;22.50;60.88
56414;BME280;42318;48.452;19.526;2023-07-31T14:36:45;97800.63;;;22.52;60.77
56414;BME280;42318;48.452;19.526;2023-07-31T14:41:46;97808.25;;;22.55;60.40
56414;BME280;42318;48.452;19.526;2023-07-31T14:46:48;97808.81;;;22.52;60.44
56414;BME280;42318;48.452;19.526;2023-07-31T14:51:49;97811.53;;;22.52;60.30
56414;BME280;42318;48.452;19.526;2023-07-31T14:56:49;97801.44;;;22.52;60.25
56414;BME280;42318;48.452;19.526;2023-07-31T15:01:50;97797.88;;;22.52;60.26
56414;BME280;42318;48.452;19.526;2023-07-31T15:06:52;97795.97;;;22.52;60.54
56414;BME280;42318;48.452;19.526;2023-07-31T15:11:53;97789.41;;;22.53;60.54
56414;BME280;42318;48.452;19.526;2023-07-31T15:16:54;97781.50;;;22.52;60.38
56414;BME280;42318;48.452;19.526;2023-07-31T15:21:55;97778.78;;;22.52;60.41
56414;BME280;42318;48.452;19.526;2023-07-31T15:26:55;97776.03;;;22.52;60.86
56414;BME280;42318;48.452;19.526;2023-07-31T15:31:56;97764.31;;;22.51;60.48
56414;BME280;42318;48.452;19.526;2023-07-31T15:36:57;97777.69;;;22.53;60.67
56414;BME280;42318;48.452;19.526;2023-07-31T15:41:58;97765.66;;;22.54;60.68
56414;BME280;42318;48.452;19.526;2023-07-31T15:46:59;97761.84;;;22.55;60.95
56414;BME280;42318;48.452;19.526;2023-07-31T15:51:59;97770.03;;;22.55;60.68
56414;BME280;42318;48.452;19.526;2023-07-31T15:57:00;97769.19;;;22.54;60.90
56414;BME280;42318;48.452;19.526;2023-07-31T16:02:01;97768.38;;;22.54;60.88
56414;BME280;42318;48.452;19.526;2023-07-31T16:07:02;97762.09;;;22.53;60.83
56414;BME280;42318;48.452;19.526;2023-07-31T16:12:03;97759.38;;;22.53;60.86
56414;BME280;42318;48.452;19.526;2023-07-31T16:17:05;97761.00;;;22.54;60.98
56414;BME280;42318;48.452;19.526;2023-07-31T16:22:06;97769.19;;;22.54;60.60
56414;BME280;42318;48.452;19.526;2023-07-31T16:27:07;97769.19;;;22.54;60.83
56414;BME280;42318;48.452;19.526;2023-07-31T16:32:08;97762.41;;;22.52;60.48
56414;BME280;42318;48.452;19.526;2023-07-31T16:37:09;97771.13;;;22.54;60.76
56414;BME280;42318;48.452;19.526;2023-07-31T16:42:09;97778.50;;;22.53;61.17
56414;BME280;42318;48.452;19.526;2023-07-31T16:47:10;97791.31;;;22.53;60.80
56414;BME280;42318;48.452;19.526;2023-07-31T16:52:11;97780.41;;;22.53;60.82
56414;BME280;42318;48.452;19.526;2023-07-31T16:57:12;97774.41;;;22.51;60.44
56414;BME280;42318;48.452;19.526;2023-07-31T17:02:13;97787.50;;;22.54;60.57
56414;BME280;42318;48.452;19.526;2023-07-31T17:07:14;97787.25;;;22.50;60.73
56414;BME280;42318;48.452;19.526;2023-07-31T17:12:15;97790.22;;;22.54;60.33
56414;BME280;42318;48.452;19.526;2023-07-31T17:17:16;97785.56;;;22.54;60.68
56414;BME280;42318;48.452;19.526;2023-07-31T17:22:17;97779.06;;;22.50;60.39
56414;BME280;42318;48.452;19.526;2023-07-31T17:27:17;97786.69;;;22.53;60.29
56414;BME280;42318;48.452;19.526;2023-07-31T17:32:18;97784.75;;;22.54;60.55
56414;BME280;42318;48.452;19.526;2023-07-31T17:37:20;97794.06;;;22.53;60.40
56414;BME280;42318;48.452;19.526;2023-07-31T17:42:21;97802.25;;;22.53;60.61
56414;BME280;42318;48.452;19.526;2023-07-31T17:47:22;97803.34;;;22.52;60.64
56414;BME280;42318;48.452;19.526;2023-07-31T17:52:23;97797.88;;;22.52;60.59
56414;BME280;42318;48.452;19.526;2023-07-31T17:57:24;97807.19;;;22.51;60.98
56414;BME280;42318;48.452;19.526;2023-07-31T18:02:24;97806.38;;;22.50;60.64
56414;BME280;42318;48.452;19.526;2023-07-31T18:07:25;97805.56;;;22.50;60.51
56414;BME280;42318;48.452;19.526;2023-07-31T18:12:26;97816.47;;;22.50;60.46
56414;BME280;42318;48.452;19.526;2023-07-31T18:17:27;97811.00;;;22.50;60.32
56414;BME280;42318;48.452;19.526;2023-07-31T18:22:27;97816.47;;;22.50;60.67
56414;BME280;42318;48.452;19.526;2023-07-31T18:27:28;97817.28;;;22.50;60.56
56414;BME280;42318;48.452;19.526;2023-07-31T18:32:29;97814.84;;;22.49;60.54
56414;BME280;42318;48.452;19.526;2023-07-31T18:37:30;97829.31;;;22.49;60.28
56414;BME280;42318;48.452;19.526;2023-07-31T18:42:31;97841.34;;;22.48;60.29
56414;BME280;42318;48.452;19.526;2023-07-31T18:47:32;97851.44;;;22.48;60.42
56414;BME280;42318;48.452;19.526;2023-07-31T18:52:32;97853.34;;;22.47;60.34
56414;BME280;42318;48.452;19.526;2023-07-31T18:57:33;97862.34;;;22.48;60.26
56414;BME280;42318;48.452;19.526;2023-07-31T19:02:34;97845.16;;;22.47;60.27
56414;BME280;42318;48.452;19.526;2023-07-31T19:07:35;97850.63;;;22.47;60.41
56414;BME280;42318;48.452;19.526;2023-07-31T19:12:35;97856.09;;;22.47;60.12
56414;BME280;42318;48.452;19.526;2023-07-31T19:17:38;97844.91;;;22.44;60.32
56414;BME280;42318;48.452;19.526;2023-07-31T19:22:39;97860.72;;;22.47;60.29
56414;BME280;42318;48.452;19.526;2023-07-31T19:27:39;97865.38;;;22.46;60.41
56414;BME280;42318;48.452;19.526;2023-07-31T19:32:40;97860.72;;;22.47;60.11
56414;BME280;42318;48.452;19.526;2023-07-31T19:37:41;97859.91;;;22.46;60.25
56414;BME280;42318;48.452;19.526;2023-07-31T19:42:41;97859.38;;;22.44;60.44
56414;BME280;42318;48.452;19.526;2023-07-31T19:47:42;97859.09;;;22.46;60.43
56414;BME280;42318;48.452;19.526;2023-07-31T19:52:43;97864.56;;;22.46;60.39
56414;BME280;42318;48.452;19.526;2023-07-31T19:57:44;97866.75;;;22.44;60.20
56414;BME280;42318;48.452;19.526;2023-07-31T20:02:45;97875.75;;;22.44;60.14
56414;BME280;42318;48.452;19.526;2023-07-31T20:07:45;97885.88;;;22.44;60.32
56414;BME280;42318;48.452;19.526;2023-07-31T20:12:46;97877.69;;;22.44;60.42
56414;BME280;42318;48.452;19.526;2023-07-31T20:17:48;97877.69;;;22.44;60.25
56414;BME280;42318;48.452;19.526;2023-07-31T20:22:49;97874.94;;;22.44;60.08
56414;BME280;42318;48.452;19.526;2023-07-31T20:27:50;97864.03;;;22.44;60.20
56414;BME280;42318;48.452;19.526;2023-07-31T20:32:51;97861.31;;;22.44;60.05
56414;BME280;42318;48.452;19.526;2023-07-31T20:37:51;97855.84;;;22.44;60.08
56414;BME280;42318;48.452;19.526;2023-07-31T20:42:56;97843.88;;;22.40;59.98
56414;BME280;42318;48.452;19.526;2023-07-31T20:47:58;97854.22;;;22.43;60.02
56414;BME280;42318;48.452;19.526;2023-07-31T20:53:00;97856.41;;;22.41;60.07
56414;BME280;42318;48.452;19.526;2023-07-31T20:58:00;97856.41;;;22.41;60.03
56414;BME280;42318;48.452;19.526;2023-07-31T21:03:02;97861.88;;;22.41;60.10
56414;BME280;42318;48.452;19.526;2023-07-31T21:08:03;97861.88;;;22.41;60.38
56414;BME280;42318;48.452;19.526;2023-07-31T21:13:04;97859.19;;;22.36;59.88
56414;BME280;42318;48.452;19.526;2023-07-31T21:18:05;97870.34;;;22.39;60.29
56414;BME280;42318;48.452;19.526;2023-07-31T21:23:05;97868.44;;;22.40;60.22
56414;BME280;42318;48.452;19.526;2023-07-31T21:28:08;97861.88;;;22.41;59.86
56414;BME280;42318;48.452;19.526;2023-07-31T21:33:11;97856.69;;;22.39;60.27
56414;BME280;42318;48.452;19.526;2023-07-31T21:38:11;97857.50;;;22.40;60.11
56414;BME280;42318;48.452;19.526;2023-07-31T21:43:14;97857.50;;;22.40;59.90
56414;BME280;42318;48.452;19.526;2023-07-31T21:48:14;97861.34;;;22.39;59.90
56414;BME280;42318;48.452;19.526;2023-07-31T21:53:15;97852.34;;;22.38;59.96
56414;BME280;42318;48.452;19.526;2023-07-31T21:58:19;97845.25;;;22.37;59.76
56414;BME280;42318;48.452;19.526;2023-07-31T22:03:20;97833.53;;;22.37;59.96
56414;BME280;42318;48.452;19.526;2023-07-31T22:08:21;97834.34;;;22.37;60.06
56414;BME280;42318;48.452;19.526;2023-07-31T22:13:21;97840.63;;;22.38;60.06
56414;BME280;42318;48.452;19.526;2023-07-31T22:18:22;97835.72;;;22.35;59.91
56414;BME280;42318;48.452;19.526;2023-07-31T22:23:23;97840.09;;;22.36;60.29
56414;BME280;42318;48.452;19.526;2023-07-31T22:28:24;97838.16;;;22.36;60.22
56414;BME280;42318;48.452;19.526;2023-07-31T22:33:25;97838.16;;;22.36;60.05
56414;BME280;42318;48.452;19.526;2023-07-31T22:38:26;97837.34;;;22.36;60.08
56414;BME280;42318;48.452;19.526;2023-07-31T22:43:27;97841.19;;;22.35;59.78
56414;BME280;42318;48.452;19.526;2023-07-31T22:48:27;97830.28;;;22.35;60.19
56414;BME280;42318;48.452;19.526;2023-07-31T22:53:28;97831.09;;;22.35;59.99
56414;BME280;42318;48.452;19.526;2023-07-31T22:58:31;97824.00;;;22.34;60.08
56414;BME280;42318;48.452;19.526;2023-07-31T23:03:32;97823.19;;;22.34;59.73
56414;BME280;42318;48.452;19.526;2023-07-31T23:08:33;97818.31;;;22.31;59.59
56414;BME280;42318;48.452;19.526;2023-07-31T23:13:36;97812.56;;;22.32;60.07
56414;BME280;42318;48.452;19.526;2023-07-31T23:18:37;97799.72;;;22.33;59.74
56414;BME280;42318;48.452;19.526;2023-07-31T23:23:37;97800.81;;;22.32;59.88
56414;BME280;42318;48.452;19.526;2023-07-31T23:28:38;97792.63;;;22.32;60.11
56414;BME280;42318;48.452;19.526;2023-07-31T23:33:39;97788.00;;;22.32;60.04
56414;BME280;42318;48.452;19.526;2023-07-31T23:38:40;97785.03;;;22.29;59.96
56414;BME280;42318;48.452;19.526;2023-07-31T23:43:41;97765.63;;;22.30;59.59
56414;BME280;42318;48.452;19.526;2023-07-31T23:48:41;97782.00;;;22.30;59.71
56414;BME280;42318;48.452;19.526;2023-07-31T23:53:42;97781.19;;;22.30;59.69
56414;BME280;42318;48.452;19.526;2023-07-31T23:58:43;97788.56;;;22.29;59.72
